Big Bear Station Historical Data
Daily Summary for February 28, 2019 Units:  English    Metric   Both
Next Day »
Daily Weekly Monthly Yearly Custom
  High: Low: Average:
Temperature: 52.2 °F 34.0 °F 40.3 °F
Dew Point: 41.5 °F 26.3 °F 34.4 °F
Humidity: 97% 48% 81%
Wind Speed: 5.8mph 0.0mph 1.5mph
Wind Gust: -999.0mph - -
Wind- - WSW
Pressure: 23.54 in 23.49 in -
Precipitation: 0.01 in    
Historical Graphs
 
 
Tabular Data for February 28, 2019
Time Temperature Dew Point Pressure Wind Wind Speed Wind Gust Humidity Rainfall Rate (Hourly)
00:07 38.8 °F 37.8 °F 23.52 in SE 2.7 mph -999.0 mph 96% 0.00 in
00:22 39.0 °F 38.0 °F 23.52 in WSW 4.2 mph -999.0 mph 96% 0.00 in
00:38 39.0 °F 37.7 °F 23.51 in NW 2.7 mph -999.0 mph 95% 0.00 in
00:53 38.8 °F 37.5 °F 23.52 in WNW 2.2 mph -999.0 mph 95% 0.00 in
01:08 38.7 °F 37.7 °F 23.52 in Calm   -999.0 mph 96% 0.00 in
01:24 38.5 °F 37.5 °F 23.52 in Calm   -999.0 mph 96% 0.00 in
01:39 38.1 °F 37.3 °F 23.52 in Calm   -999.0 mph 97% 0.00 in
01:54 37.9 °F 37.1 °F 23.52 in Calm   -999.0 mph 97% 0.00 in
02:09 37.9 °F 37.1 °F 23.52 in NNW 1.1 mph -999.0 mph 97% 0.00 in
02:25 38.1 °F 37.1 °F 23.52 in SSW 3.2 mph -999.0 mph 96% 0.00 in
02:40 38.1 °F 37.1 °F 23.51 in SSW 2.2 mph -999.0 mph 96% 0.00 in
02:56 37.9 °F 36.9 °F 23.51 in SE 5.8 mph -999.0 mph 96% 0.00 in
03:11 37.9 °F 36.3 °F 23.51 in ESE 2.7 mph -999.0 mph 94% 0.00 in
03:26 37.9 °F 36.3 °F 23.51 in SSW 1.7 mph -999.0 mph 94% 0.00 in
03:42 37.8 °F 36.2 °F 23.50 in Calm   -999.0 mph 94% 0.00 in
03:57 37.8 °F 36.2 °F 23.51 in NW 1.1 mph -999.0 mph 94% 0.00 in
04:12 37.6 °F 36.0 °F 23.51 in SSW 2.2 mph -999.0 mph 94% 0.00 in
04:28 37.4 °F 35.8 °F 23.51 in SSW 2.2 mph -999.0 mph 94% 0.00 in
04:43 37.6 °F 36.0 °F 23.50 in SSW 3.2 mph -999.0 mph 94% 0.00 in
04:58 37.4 °F 35.3 °F 23.50 in NNE 4.7 mph -999.0 mph 92% 0.00 in
05:13 37.2 °F 35.9 °F 23.51 in North 2.2 mph -999.0 mph 95% 0.00 in
05:29 37.2 °F 35.9 °F 23.54 in Calm   -999.0 mph 95% 0.00 in
05:44 37.0 °F 35.4 °F 23.54 in Calm   -999.0 mph 94% 0.00 in
05:59 36.3 °F 34.7 °F 23.54 in South 1.7 mph -999.0 mph 94% 0.00 in
06:14 35.4 °F 34.1 °F 23.53 in Calm   -999.0 mph 95% 0.00 in
06:30 35.2 °F 33.9 °F 23.51 in Calm   -999.0 mph 95% 0.00 in
06:45 35.1 °F 33.5 °F 23.51 in Calm   -999.0 mph 94% 0.00 in
07:00 35.4 °F 34.4 °F 23.51 in Calm   -999.0 mph 96% 0.00 in
07:15 35.4 °F 34.6 °F 23.51 in NW 2.7 mph -999.0 mph 97% 0.00 in
07:30 36.3 °F 35.3 °F 23.53 in NW 3.7 mph -999.0 mph 96% 0.00 in
07:46 37.0 °F 35.4 °F 23.53 in Calm   -999.0 mph 94% 0.00 in
08:01 37.0 °F 35.2 °F 23.53 in NNW 2.7 mph -999.0 mph 93% 0.00 in
08:16 37.8 °F 35.1 °F 23.54 in Calm   -999.0 mph 90% 0.00 in
08:32 38.1 °F 35.4 °F 23.54 in SW 2.7 mph -999.0 mph 90% 0.00 in
08:47 38.7 °F 35.5 °F 23.54 in Calm   -999.0 mph 88% 0.00 in
09:02 39.2 °F 35.7 °F 23.54 in West 1.7 mph -999.0 mph 87% 0.00 in
09:17 39.7 °F 36.1 °F 23.54 in NW 4.2 mph -999.0 mph 87% 0.00 in
09:32 40.5 °F 36.6 °F 23.54 in Calm   -999.0 mph 86% 0.00 in
09:48 42.6 °F 36.5 °F 23.54 in WSW 2.2 mph -999.0 mph 79% 0.00 in
10:03 43.7 °F 35.3 °F 23.54 in Calm   -999.0 mph 72% 0.00 in
10:19 44.8 °F 36.3 °F 23.54 in Calm   -999.0 mph 72% 0.00 in
10:34 46.0 °F 37.5 °F 23.54 in Calm   -999.0 mph 72% 0.00 in
10:50 45.9 °F 37.7 °F 23.54 in North 2.2 mph -999.0 mph 73% 0.00 in
11:05 47.7 °F 38.0 °F 23.54 in East 1.1 mph -999.0 mph 69% 0.00 in
11:20 47.5 °F 38.6 °F 23.54 in NNW 2.7 mph -999.0 mph 71% 0.00 in
11:35 49.3 °F 36.0 °F 23.53 in ENE 2.7 mph -999.0 mph 60% 0.00 in
11:52 49.8 °F 33.3 °F 23.53 in WNW 4.2 mph -999.0 mph 53% 0.00 in
12:07 51.1 °F 33.6 °F 23.52 in Calm   -999.0 mph 51% 0.00 in
12:22 52.0 °F 33.4 °F 23.52 in NW 5.3 mph -999.0 mph 49% 0.00 in
12:38 52.2 °F 33.1 °F 23.51 in NW 3.2 mph -999.0 mph 48% 0.00 in
12:53 51.8 °F 32.7 °F 23.50 in NW 3.7 mph -999.0 mph 48% 0.00 in
13:08 48.7 °F 40.4 °F 23.50 in NW 4.2 mph -999.0 mph 73% 0.00 in
13:24 48.4 °F 41.5 °F 23.50 in NW 4.2 mph -999.0 mph 77% 0.00 in
13:39 48.2 °F 37.8 °F 23.50 in NW 4.7 mph -999.0 mph 67% 0.00 in
13:54 48.9 °F 36.5 °F 23.50 in WSW 1.7 mph -999.0 mph 62% 0.00 in
14:10 49.1 °F 35.4 °F 23.50 in West 4.2 mph -999.0 mph 59% 0.00 in
14:25 48.2 °F 37.4 °F 23.50 in WNW 2.7 mph -999.0 mph 66% 0.00 in
14:40 47.3 °F 36.1 °F 23.50 in North 4.7 mph -999.0 mph 65% 0.00 in
14:55 47.3 °F 36.1 °F 23.50 in SSW 1.7 mph -999.0 mph 65% 0.00 in
15:10 47.5 °F 36.3 °F 23.50 in WNW 3.7 mph -999.0 mph 65% 0.00 in
15:26 45.0 °F 39.2 °F 23.50 in NNW 2.7 mph -999.0 mph 80% 0.00 in
15:41 44.8 °F 38.7 °F 23.49 in NW 3.7 mph -999.0 mph 79% 0.00 in
15:56 44.6 °F 37.5 °F 23.49 in Calm   -999.0 mph 76% 0.00 in
16:11 44.8 °F 36.3 °F 23.49 in Calm   -999.0 mph 72% 0.00 in
16:26 45.0 °F 36.9 °F 23.50 in NW 3.7 mph -999.0 mph 73% 0.00 in
16:42 44.2 °F 39.7 °F 23.50 in East 3.7 mph -999.0 mph 84% 0.00 in
16:57 42.4 °F 38.5 °F 23.50 in WNW 2.7 mph -999.0 mph 86% 0.00 in
17:12 40.6 °F 37.9 °F 23.51 in West 2.2 mph -999.0 mph 90% 0.00 in
17:27 39.6 °F 37.2 °F 23.50 in WNW 4.2 mph -999.0 mph 91% 0.00 in
17:43 38.8 °F 36.4 °F 23.50 in Calm   -999.0 mph 91% 0.00 in
17:58 38.1 °F 31.5 °F 23.50 in Calm   -999.0 mph 77% 0.00 in
18:13 38.3 °F 31.1 °F 23.50 in Calm   -999.0 mph 75% 0.00 in
18:28 38.3 °F 29.7 °F 23.50 in Calm   -999.0 mph 71% 0.00 in
18:44 38.3 °F 30.4 °F 23.51 in Calm   -999.0 mph 73% 0.00 in
19:00 38.1 °F 30.2 °F 23.51 in Calm   -999.0 mph 73% 0.00 in
19:15 37.9 °F 30.4 °F 23.52 in Calm   -999.0 mph 74% 0.00 in
19:30 37.2 °F 30.7 °F 23.52 in Calm   -999.0 mph 77% 0.00 in
19:46 35.2 °F 30.0 °F 23.52 in Calm   -999.0 mph 81% 0.00 in
20:01 34.9 °F 29.4 °F 23.52 in Calm   -999.0 mph 80% 0.00 in
20:16 34.0 °F 28.5 °F 23.52 in Calm   -999.0 mph 80% 0.00 in
20:32 34.9 °F 27.1 °F 23.52 in Calm   -999.0 mph 73% 0.00 in
20:47 34.9 °F 27.5 °F 23.52 in Calm   -999.0 mph 74% 0.00 in
21:03 36.0 °F 28.2 °F 23.52 in Calm   -999.0 mph 73% 0.00 in
21:19 36.0 °F 28.2 °F 23.52 in Calm   -999.0 mph 73% 0.00 in
21:34 36.3 °F 28.1 °F 23.52 in Calm   -999.0 mph 72% 0.00 in
21:49 36.7 °F 27.8 °F 23.52 in Calm   -999.0 mph 70% 0.00 in
22:04 35.2 °F 27.4 °F 23.52 in Calm   -999.0 mph 73% 0.00 in
22:19 35.1 °F 26.3 °F 23.51 in Calm   -999.0 mph 70% 0.00 in
22:35 35.2 °F 26.4 °F 23.51 in Calm   -999.0 mph 70% 0.00 in
22:50 35.4 °F 26.9 °F 23.51 in Calm   -999.0 mph 71% 0.00 in
23:05 35.4 °F 26.6 °F 23.51 in Calm   -999.0 mph 70% 0.00 in
23:20 35.2 °F 26.7 °F 23.51 in Calm   -999.0 mph 71% 0.00 in
23:36 36.1 °F 26.6 °F 23.51 in Calm   -999.0 mph 68% 0.00 in
23:51 35.4 °F 26.9 °F 23.51 in Calm   -999.0 mph 71% 0.00 in
Big Bear CA Weather